createdAt,value
2022-09-25T00:02:15.411Z,8.20
2022-09-25T00:04:47.938Z,7.10
2022-09-25T00:07:21.879Z,7.63
2022-09-25T00:10:02.801Z,7.20
2022-09-25T00:12:33.649Z,7.60
2022-09-25T00:15:06.015Z,7.53
2022-09-25T00:17:42.888Z,6.73
2022-09-25T00:20:20.613Z,7.03
2022-09-25T00:22:51.495Z,7.30
2022-09-25T00:25:29.342Z,7.27
2022-09-25T00:28:03.742Z,6.30
2022-09-25T00:30:37.304Z,7.17
2022-09-25T00:33:11.351Z,7.50
2022-09-25T00:35:47.537Z,7.83
2022-09-25T00:38:16.404Z,7.60
2022-09-25T00:40:52.025Z,7.80
2022-09-25T00:43:53.403Z,7.60
2022-09-25T00:46:51.632Z,7.17
2022-09-25T00:49:29.596Z,6.90
2022-09-25T00:52:04.626Z,7.80
2022-09-25T00:54:41.833Z,7.07
2022-09-25T00:57:17.464Z,7.30
2022-09-25T00:59:52.512Z,7.37
2022-09-25T01:02:40.414Z,6.70
2022-09-25T01:05:17.328Z,7.50
2022-09-25T01:07:49.861Z,6.90
2022-09-25T01:10:24.615Z,8.60
2022-09-25T01:12:57.393Z,7.10
2022-09-25T01:16:04.809Z,7.17
2022-09-25T01:18:57.665Z,7.27
2022-09-25T01:21:32.007Z,7.10
2022-09-25T01:24:39.733Z,7.30
2022-09-25T01:27:52.525Z,7.27
2022-09-25T01:30:26.698Z,8.30
2022-09-25T01:33:06.324Z,7.40
2022-09-25T01:36:18.937Z,7.63
2022-09-25T01:39:22.876Z,6.80
2022-09-25T01:42:15.726Z,7.30
2022-09-25T01:45:11.513Z,7.97
2022-09-25T01:47:43.536Z,7.40
2022-09-25T01:50:43.833Z,7.63
2022-09-25T01:53:22.660Z,7.50
2022-09-25T01:56:04.345Z,7.40
2022-09-25T01:58:47.367Z,7.23
2022-09-25T02:01:41.208Z,6.60
2022-09-25T02:04:26.117Z,6.30
2022-09-25T02:07:02.921Z,6.60
2022-09-25T02:09:55.807Z,6.97
2022-09-25T02:12:51.144Z,6.17
2022-09-25T02:15:55.607Z,6.80
2022-09-25T02:18:44.845Z,6.40
2022-09-25T02:21:45.581Z,7.00
2022-09-25T02:24:59.138Z,6.77
2022-09-25T02:27:31.922Z,7.47
2022-09-25T02:30:00.461Z,7.30
2022-09-25T02:32:35.416Z,6.87
2022-09-25T02:35:07.384Z,8.10
2022-09-25T02:37:35.965Z,7.80
2022-09-25T02:40:13.197Z,8.50
2022-09-25T02:43:20.926Z,7.80
2022-09-25T02:46:14.389Z,7.90
2022-09-25T02:49:01.205Z,8.60
2022-09-25T02:51:55.928Z,8.33
2022-09-25T02:55:09.011Z,9.10
2022-09-25T02:58:13.515Z,9.10
2022-09-25T03:00:50.319Z,9.03
2022-09-25T03:03:24.911Z,9.37
2022-09-25T03:05:58.654Z,8.40
2022-09-25T03:08:44.504Z,8.80
2022-09-25T03:11:24.005Z,7.67
2022-09-25T03:14:04.045Z,8.37
2022-09-25T03:17:00.578Z,8.67
2022-09-25T03:19:32.415Z,8.20
2022-09-25T03:22:06.598Z,8.30
2022-09-25T03:24:43.354Z,7.63
2022-09-25T03:27:16.974Z,7.33
2022-09-25T03:29:50.985Z,7.30
2022-09-25T03:32:19.243Z,7.77
2022-09-25T03:34:48.533Z,7.40
2022-09-25T03:37:27.797Z,7.80
2022-09-25T03:40:06.189Z,7.33
2022-09-25T03:42:38.560Z,7.73
2022-09-25T03:45:19.351Z,6.40
2022-09-25T03:47:53.566Z,6.50
2022-09-25T03:50:26.744Z,6.43
2022-09-25T03:52:58.727Z,6.47
2022-09-25T03:55:31.126Z,7.03
2022-09-25T03:58:05.492Z,6.53
2022-09-25T04:00:37.460Z,6.77
2022-09-25T04:03:09.500Z,7.23
2022-09-25T04:05:38.331Z,6.10
2022-09-25T04:08:10.597Z,5.60
2022-09-25T04:10:47.763Z,6.10
2022-09-25T04:13:22.989Z,5.80
2022-09-25T04:15:57.456Z,5.77
2022-09-25T04:18:31.760Z,5.37
2022-09-25T04:21:07.312Z,5.97
2022-09-25T04:23:59.673Z,5.33
2022-09-25T04:26:28.643Z,6.17
2022-09-25T04:28:57.003Z,5.10
2022-09-25T04:31:29.081Z,5.53
2022-09-25T04:33:57.141Z,5.50
2022-09-25T04:36:33.210Z,4.87
2022-09-25T04:39:02.663Z,5.10
2022-09-25T04:41:36.921Z,5.33
2022-09-25T04:44:12.250Z,5.23
2022-09-25T04:46:47.262Z,4.90
2022-09-25T04:49:15.576Z,4.73
2022-09-25T04:51:46.913Z,5.30
2022-09-25T04:54:21.202Z,4.83
2022-09-25T04:56:51.357Z,4.10
2022-09-25T04:59:25.457Z,4.33
2022-09-25T05:02:08.195Z,4.60
2022-09-25T05:04:38.732Z,4.90
2022-09-25T05:07:11.623Z,5.07
2022-09-25T05:09:45.404Z,4.53
2022-09-25T05:12:25.806Z,4.77
2022-09-25T05:14:55.376Z,3.87
2022-09-25T05:17:26.419Z,3.67
2022-09-25T05:19:57.040Z,4.43
2022-09-25T05:22:30.649Z,4.17
2022-09-25T05:25:02.525Z,4.80
2022-09-25T05:27:38.284Z,4.07
2022-09-25T05:30:11.945Z,4.40
2022-09-25T05:32:41.184Z,3.50
2022-09-25T05:35:09.538Z,4.07
2022-09-25T05:37:38.429Z,3.93
2022-09-25T05:40:08.505Z,4.07
2022-09-25T05:42:47.372Z,4.10
2022-09-25T05:45:24.274Z,3.67
2022-09-25T05:48:08.877Z,4.00
2022-09-25T05:50:43.625Z,4.17
2022-09-25T05:53:15.316Z,4.17
2022-09-25T05:55:53.321Z,3.73
2022-09-25T05:58:27.100Z,4.27
2022-09-25T06:00:55.741Z,4.20
2022-09-25T06:03:25.188Z,3.80
2022-09-25T06:05:56.361Z,3.43
2022-09-25T06:08:24.527Z,4.07
2022-09-25T06:10:58.543Z,2.90
2022-09-25T06:13:32.637Z,3.37
2022-09-25T06:16:03.284Z,3.00
2022-09-25T06:18:35.579Z,3.00
2022-09-25T06:21:09.446Z,3.33
2022-09-25T06:23:38.439Z,3.30
2022-09-25T06:26:10.628Z,3.00
2022-09-25T06:28:40.069Z,3.20
2022-09-25T06:31:08.409Z,3.17
2022-09-25T06:33:36.892Z,3.43
2022-09-25T06:36:06.907Z,3.43
2022-09-25T06:38:38.536Z,3.10
2022-09-25T06:41:19.210Z,3.40
2022-09-25T06:43:52.934Z,3.63
2022-09-25T06:46:24.109Z,2.70
2022-09-25T06:48:57.848Z,3.23
2022-09-25T06:51:32.518Z,2.83
2022-09-25T06:54:01.197Z,3.03
2022-09-25T06:56:31.727Z,3.07
2022-09-25T06:59:05.328Z,3.07
2022-09-25T07:01:33.320Z,3.03
2022-09-25T07:04:11.211Z,3.00
2022-09-25T07:06:39.326Z,3.07
2022-09-25T07:09:11.496Z,3.30
2022-09-25T07:11:44.201Z,3.20
2022-09-25T07:14:14.187Z,2.90
2022-09-25T07:16:43.125Z,3.50
2022-09-25T07:19:14.965Z,3.30
2022-09-25T07:21:44.595Z,3.30
2022-09-25T07:24:13.585Z,3.30
2022-09-25T07:26:48.115Z,3.60
2022-09-25T07:29:18.234Z,3.60
2022-09-25T07:31:49.453Z,3.10
2022-09-25T07:34:18.446Z,3.47
2022-09-25T07:36:49.769Z,3.70
2022-09-25T07:39:18.838Z,3.17
2022-09-25T07:41:51.366Z,3.33
2022-09-25T07:44:38.225Z,2.90
2022-09-25T07:47:10.982Z,3.10
2022-09-25T07:49:42.526Z,3.13
2022-09-25T07:52:15.315Z,3.50
2022-09-25T07:54:46.950Z,3.23
2022-09-25T07:57:15.535Z,3.27
2022-09-25T07:59:44.579Z,3.80
2022-09-25T08:02:16.792Z,3.13
2022-09-25T08:04:46.549Z,3.50
2022-09-25T08:07:15.214Z,3.30
2022-09-25T08:09:46.626Z,3.50
2022-09-25T08:12:15.186Z,3.57
2022-09-25T08:14:50.078Z,4.00
2022-09-25T08:17:22.435Z,4.10
2022-09-25T08:19:52.680Z,4.20
2022-09-25T08:22:24.314Z,4.10
2022-09-25T08:24:54.120Z,3.77
2022-09-25T08:27:22.504Z,4.43
2022-09-25T08:29:56.532Z,4.70
2022-09-25T08:32:33.388Z,4.90
2022-09-25T08:35:02.483Z,4.93
2022-09-25T08:37:33.420Z,4.50
2022-09-25T08:40:10.062Z,5.30
2022-09-25T08:42:41.650Z,4.93
2022-09-25T08:45:50.761Z,4.73
2022-09-25T08:48:54.886Z,4.50
2022-09-25T08:51:48.076Z,4.43
2022-09-25T08:54:35.596Z,4.87
2022-09-25T08:57:35.947Z,4.70
2022-09-25T09:00:19.558Z,5.40
2022-09-25T09:03:01.656Z,5.33
2022-09-25T09:05:50.912Z,5.90
2022-09-25T09:08:27.308Z,5.47
2022-09-25T09:11:14.817Z,5.73
2022-09-25T09:14:12.809Z,5.90
2022-09-25T09:19:59.559Z,4.97
2022-09-25T09:22:39.013Z,5.27
2022-09-25T09:25:46.258Z,5.90
2022-09-25T09:28:29.528Z,5.53
2022-09-25T09:31:12.998Z,4.77
2022-09-25T09:33:44.011Z,5.97
2022-09-25T09:36:20.103Z,4.23
2022-09-25T09:39:09.022Z,4.07
2022-09-25T09:41:50.213Z,4.63
2022-09-25T09:44:34.051Z,4.13
2022-09-25T09:47:27.243Z,3.97
2022-09-25T09:50:09.873Z,2.67
2022-09-25T09:52:42.344Z,3.40
2022-09-25T09:55:30.237Z,3.30
2022-09-25T09:58:05.069Z,3.90
2022-09-25T10:00:32.699Z,3.80
2022-09-25T10:03:17.739Z,4.10
2022-09-25T10:05:51.304Z,3.77
2022-09-25T10:08:18.337Z,4.10
2022-09-25T10:10:53.825Z,3.97
2022-09-25T10:13:32.802Z,4.10
2022-09-25T10:16:05.686Z,4.10
2022-09-25T10:18:55.696Z,3.80
2022-09-25T10:22:16.645Z,4.03
2022-09-25T10:24:55.248Z,4.20
2022-09-25T10:27:28.320Z,5.03
2022-09-25T10:30:10.613Z,4.40
2022-09-25T10:33:03.936Z,4.60
2022-09-25T10:35:41.891Z,4.83
2022-09-25T10:38:34.120Z,4.50
2022-09-25T10:41:12.312Z,3.70
2022-09-25T10:44:02.238Z,2.43
2022-09-25T10:46:54.236Z,2.00
2022-09-25T10:49:43.487Z,2.50
2022-09-25T10:52:14.306Z,2.90
2022-09-25T10:54:45.661Z,4.20
2022-09-25T10:57:26.859Z,4.30
2022-09-25T10:59:54.804Z,4.50
2022-09-25T11:02:40.129Z,4.30
2022-09-25T11:05:17.784Z,4.27
2022-09-25T11:07:55.991Z,4.63
2022-09-25T11:10:45.424Z,4.37
2022-09-25T11:13:24.379Z,3.50
2022-09-25T11:15:57.008Z,3.50
2022-09-25T11:18:52.454Z,5.00
2022-09-25T11:21:26.807Z,4.97
2022-09-25T11:24:20.720Z,4.90
2022-09-25T11:27:30.439Z,4.67
2022-09-25T11:30:31.096Z,3.90
2022-09-25T11:34:03.405Z,3.83
2022-09-25T11:37:00.568Z,4.30
2022-09-25T11:40:04.914Z,2.57
2022-09-25T11:42:39.221Z,4.60
2022-09-25T11:45:30.435Z,3.97
2022-09-25T11:48:35.108Z,4.50
2022-09-25T11:51:10.835Z,3.60
2022-09-25T11:54:03.294Z,3.40
2022-09-25T11:56:59.883Z,2.10
2022-09-25T12:00:07.093Z,2.70
2022-09-25T12:03:20.157Z,2.63
2022-09-25T12:06:34.063Z,3.03
2022-09-25T12:09:50.991Z,3.20
2022-09-25T12:13:16.612Z,3.40
2022-09-25T12:15:51.886Z,3.70
2022-09-25T12:18:37.734Z,3.43
2022-09-25T12:21:17.639Z,3.40
2022-09-25T12:23:59.127Z,3.57
2022-09-25T12:27:08.363Z,3.63
2022-09-25T12:30:00.693Z,3.83
2022-09-25T12:32:54.898Z,4.60
2022-09-25T12:36:00.917Z,3.63
2022-09-25T12:38:55.305Z,4.33
2022-09-25T12:41:40.729Z,4.10
2022-09-25T12:44:36.229Z,3.50
2022-09-25T12:47:44.091Z,4.17
2022-09-25T12:50:50.533Z,4.17
2022-09-25T12:53:36.615Z,3.73
2022-09-25T12:56:47.679Z,4.40
2022-09-25T12:59:46.601Z,4.27
2022-09-25T13:02:45.288Z,5.17
2022-09-25T13:05:37.780Z,6.00
2022-09-25T13:08:14.705Z,5.40
2022-09-25T13:10:53.780Z,5.70
2022-09-25T13:13:26.376Z,4.93
2022-09-25T13:15:59.963Z,5.63
2022-09-25T13:18:30.282Z,4.30
2022-09-25T13:21:01.504Z,3.90
2022-09-25T13:23:36.765Z,4.50
2022-09-25T13:26:16.351Z,4.13
2022-09-25T13:29:21.341Z,4.80
2022-09-25T13:31:48.589Z,4.27
2022-09-25T13:34:18.885Z,4.87
2022-09-25T13:36:51.407Z,4.20
2022-09-25T13:39:45.739Z,4.50
2022-09-25T13:42:25.475Z,4.10
2022-09-25T13:45:22.858Z,4.90
2022-09-25T13:48:12.603Z,4.50
2022-09-25T13:50:45.657Z,4.67
2022-09-25T13:53:22.876Z,4.13
2022-09-25T13:55:55.782Z,4.40
2022-09-25T13:58:25.874Z,4.53
2022-09-25T14:01:03.043Z,4.33
2022-09-25T14:03:49.639Z,5.23
2022-09-25T14:06:26.628Z,4.73
2022-09-25T14:08:57.309Z,4.83
2022-09-25T14:11:31.467Z,6.03
2022-09-25T14:14:01.833Z,6.10
2022-09-25T14:16:43.698Z,5.50
2022-09-25T14:19:25.343Z,5.40
2022-09-25T14:21:53.057Z,5.40
2022-09-25T14:24:29.208Z,7.10
2022-09-25T14:27:01.346Z,7.87
2022-09-25T14:29:46.539Z,7.63
2022-09-25T14:33:03.232Z,8.40
2022-09-25T14:36:06.659Z,9.10
2022-09-25T14:39:08.515Z,10.77
2022-09-25T14:41:55.573Z,11.80
2022-09-25T14:45:04.756Z,12.80
2022-09-25T14:47:37.684Z,13.10
2022-09-25T14:50:05.946Z,13.87
2022-09-25T14:52:36.315Z,15.67
2022-09-25T14:55:05.753Z,11.67
2022-09-25T14:57:35.439Z,12.10
2022-09-25T15:00:07.983Z,10.80
2022-09-25T15:02:44.979Z,11.03
2022-09-25T15:05:27.327Z,9.90
2022-09-25T15:07:58.885Z,9.07
2022-09-25T15:10:28.878Z,9.60
2022-09-25T15:13:17.918Z,8.40
2022-09-25T15:16:13.166Z,8.83
2022-09-25T15:18:43.801Z,9.07
2022-09-25T15:21:28.213Z,9.10
2022-09-25T15:23:59.302Z,9.20
2022-09-25T15:26:28.329Z,8.50
2022-09-25T15:28:56.071Z,7.33
2022-09-25T15:31:23.416Z,7.80
2022-09-25T15:34:11.651Z,7.80
2022-09-25T15:36:39.679Z,8.27
2022-09-25T15:39:16.420Z,7.40
2022-09-25T15:41:44.858Z,7.80
2022-09-25T15:44:25.105Z,7.90
2022-09-25T15:47:01.916Z,7.30
2022-09-25T15:49:41.902Z,6.50
2022-09-25T15:52:32.300Z,5.93
2022-09-25T15:55:14.581Z,6.40
2022-09-25T15:57:42.258Z,7.30
2022-09-25T16:00:38.539Z,6.60
2022-09-25T16:03:42.253Z,6.10
2022-09-25T16:06:17.605Z,5.30
2022-09-25T16:08:44.995Z,5.33
2022-09-25T16:11:19.972Z,4.97
2022-09-25T16:13:51.746Z,4.73
2022-09-25T16:16:31.590Z,4.27
2022-09-25T16:19:24.880Z,4.80
2022-09-25T16:21:52.846Z,4.27
2022-09-25T16:24:24.530Z,4.40
2022-09-25T16:27:03.540Z,4.90
2022-09-25T16:29:39.077Z,3.50
2022-09-25T16:32:13.758Z,3.70
2022-09-25T16:34:41.715Z,3.33
2022-09-25T16:37:21.627Z,3.40
2022-09-25T16:40:34.279Z,3.07
2022-09-25T16:43:01.697Z,3.50
2022-09-25T16:45:34.113Z,3.30
2022-09-25T16:48:37.503Z,3.53
2022-09-25T16:51:19.375Z,3.33
2022-09-25T16:53:46.479Z,3.27
2022-09-25T16:56:22.377Z,4.17
2022-09-25T16:58:49.723Z,3.63
2022-09-25T17:01:17.894Z,3.80
2022-09-25T17:03:51.732Z,3.70
2022-09-25T17:06:24.170Z,3.60
2022-09-25T17:08:52.952Z,4.37
2022-09-25T17:11:21.460Z,3.60
2022-09-25T17:13:49.124Z,3.90
2022-09-25T17:16:16.220Z,4.40
2022-09-25T17:18:43.419Z,4.13
2022-09-25T17:21:15.903Z,3.67
2022-09-25T17:23:44.497Z,4.17
2022-09-25T17:26:21.503Z,3.93
2022-09-25T17:28:49.715Z,4.07
2022-09-25T17:31:21.479Z,4.10
2022-09-25T17:33:52.669Z,3.80
2022-09-25T17:36:19.652Z,3.63
2022-09-25T17:38:46.570Z,4.00
2022-09-25T17:41:35.177Z,3.63
2022-09-25T17:44:04.492Z,3.47
2022-09-25T17:46:36.125Z,3.73
2022-09-25T17:49:04.201Z,3.20
2022-09-25T17:51:32.023Z,3.40
2022-09-25T17:54:02.117Z,3.33
2022-09-25T17:56:29.703Z,3.47
2022-09-25T17:58:57.752Z,3.60
2022-09-25T18:01:33.171Z,3.37
2022-09-25T18:04:23.806Z,3.43
2022-09-25T18:06:51.998Z,3.10
2022-09-25T18:09:19.061Z,4.00
2022-09-25T18:11:50.814Z,3.70
2022-09-25T18:14:30.574Z,4.10
2022-09-25T18:17:03.439Z,3.67
2022-09-25T18:19:51.537Z,4.23
2022-09-25T18:22:20.567Z,4.70
2022-09-25T18:24:52.715Z,5.43
2022-09-25T18:27:20.445Z,4.47
2022-09-25T18:29:47.673Z,3.63
2022-09-25T18:32:15.330Z,4.40
2022-09-25T18:34:43.014Z,3.60
2022-09-25T18:37:10.426Z,3.23
2022-09-25T18:39:37.414Z,3.03
2022-09-25T18:42:06.693Z,3.07
2022-09-25T18:44:42.243Z,3.87
2022-09-25T18:47:12.712Z,4.10
2022-09-25T18:49:39.916Z,3.80
2022-09-25T18:52:08.070Z,4.17
2022-09-25T18:54:35.061Z,4.00
2022-09-25T18:57:02.471Z,3.80
2022-09-25T18:59:29.398Z,4.13
2022-09-25T19:01:56.599Z,4.30
2022-09-25T19:04:25.730Z,4.60
2022-09-25T19:06:52.983Z,5.00
2022-09-25T19:09:24.514Z,4.97
2022-09-25T19:11:51.812Z,4.80
2022-09-25T19:14:20.109Z,4.50
2022-09-25T19:16:47.519Z,4.30
2022-09-25T19:19:15.574Z,6.00
2022-09-25T19:21:42.601Z,6.30
2022-09-25T19:24:09.811Z,5.67
2022-09-25T19:26:38.164Z,5.27
2022-09-25T19:29:05.442Z,5.77
2022-09-25T19:31:32.693Z,5.00
2022-09-25T19:34:02.741Z,4.80
2022-09-25T19:36:32.732Z,5.03
2022-09-25T19:39:01.064Z,4.73
2022-09-25T19:41:35.097Z,4.70
2022-09-25T19:44:13.190Z,4.20
2022-09-25T19:46:42.179Z,4.17
2022-09-25T19:49:10.143Z,4.33
2022-09-25T19:51:37.740Z,4.67
2022-09-25T19:54:07.430Z,4.70
2022-09-25T19:56:40.768Z,6.00
2022-09-25T19:59:17.783Z,5.77
2022-09-25T20:01:45.587Z,3.70
2022-09-25T20:04:18.431Z,4.00
2022-09-25T20:06:46.774Z,4.80
2022-09-25T20:09:14.444Z,4.30
2022-09-25T20:11:41.693Z,4.43
2022-09-25T20:14:08.853Z,3.73
2022-09-25T20:16:37.570Z,4.10
2022-09-25T20:19:06.490Z,4.67
2022-09-25T20:21:37.172Z,3.70
2022-09-25T20:24:08.535Z,4.07
2022-09-25T20:26:36.461Z,4.23
2022-09-25T20:29:09.411Z,4.50
2022-09-25T20:31:39.243Z,4.00
2022-09-25T20:34:06.628Z,3.87
2022-09-25T20:36:33.662Z,4.70
2022-09-25T20:39:00.974Z,3.77
2022-09-25T20:41:27.967Z,3.67
2022-09-25T20:43:57.405Z,3.97
2022-09-25T20:46:26.288Z,4.17
2022-09-25T20:48:57.508Z,4.30
2022-09-25T20:51:29.201Z,4.00
2022-09-25T20:54:05.541Z,4.23
2022-09-25T20:56:33.866Z,4.10
2022-09-25T20:59:02.114Z,4.00
2022-09-25T21:01:36.492Z,3.53
2022-09-25T21:04:08.041Z,4.23
2022-09-25T21:06:38.409Z,3.80
2022-09-25T21:09:19.953Z,3.93
2022-09-25T21:11:47.254Z,4.13
2022-09-25T21:14:20.868Z,5.00
2022-09-25T21:16:49.028Z,4.77
2022-09-25T21:19:19.093Z,4.37
2022-09-25T21:21:46.796Z,5.27
2022-09-25T21:24:16.814Z,4.27
2022-09-25T21:26:44.592Z,4.10
2022-09-25T21:29:14.534Z,4.17
2022-09-25T21:31:48.422Z,3.67
2022-09-25T21:34:17.018Z,3.80
2022-09-25T21:36:44.567Z,4.10
2022-09-25T21:39:11.681Z,4.33
2022-09-25T21:41:38.695Z,4.30
2022-09-25T21:44:13.103Z,3.80
2022-09-25T21:46:40.658Z,4.60
2022-09-25T21:49:08.567Z,4.20
2022-09-25T21:51:43.544Z,4.37
2022-09-25T21:54:12.668Z,4.60
2022-09-25T21:56:40.343Z,4.70
2022-09-25T21:59:09.365Z,3.90
2022-09-25T22:01:38.824Z,4.60
2022-09-25T22:04:07.940Z,4.17
2022-09-25T22:06:38.436Z,4.30
2022-09-25T22:09:13.210Z,4.73
2022-09-25T22:11:42.457Z,3.87
2022-09-25T22:14:15.446Z,3.97
2022-09-25T22:16:47.409Z,4.20
2022-09-25T22:19:28.273Z,3.93
2022-09-25T22:21:58.168Z,3.80
2022-09-25T22:24:25.710Z,4.47
2022-09-25T22:26:54.654Z,4.20
2022-09-25T22:29:23.012Z,4.40
2022-09-25T22:31:50.540Z,4.13
2022-09-25T22:34:26.933Z,3.80
2022-09-25T22:36:59.612Z,3.70
2022-09-25T22:39:29.213Z,4.40
2022-09-25T22:41:57.094Z,4.70
2022-09-25T22:44:24.866Z,4.80
2022-09-25T22:46:51.985Z,4.60
2022-09-25T22:49:18.923Z,3.97
2022-09-25T22:51:45.924Z,3.87
2022-09-25T22:54:14.523Z,4.03
2022-09-25T22:56:42.843Z,4.00
2022-09-25T22:59:16.044Z,3.97
2022-09-25T23:01:51.585Z,4.80
2022-09-25T23:04:22.255Z,5.70
2022-09-25T23:06:50.043Z,5.03
2022-09-25T23:09:21.161Z,4.77
2022-09-25T23:11:48.398Z,3.90
2022-09-25T23:14:20.096Z,4.40
2022-09-25T23:16:50.035Z,4.10
2022-09-25T23:19:18.261Z,5.50
2022-09-25T23:21:45.336Z,4.00
2022-09-25T23:24:16.048Z,4.40
2022-09-25T23:26:44.034Z,4.50
2022-09-25T23:29:17.476Z,4.00
2022-09-25T23:31:46.598Z,3.90
2022-09-25T23:34:14.513Z,4.20
2022-09-25T23:36:42.157Z,4.33
2022-09-25T23:39:11.408Z,4.23
2022-09-25T23:41:39.666Z,4.10
2022-09-25T23:44:09.562Z,4.57
2022-09-25T23:46:39.946Z,3.50
2022-09-25T23:49:08.003Z,4.70
2022-09-25T23:51:35.187Z,4.27
2022-09-25T23:54:03.141Z,4.23
2022-09-25T23:56:33.337Z,4.40
2022-09-25T23:59:02.076Z,4.33
